sensor_id;sensor_type;location;lat;lon;timestamp;P1;durP1;ratioP1;P2;durP2;ratioP2
69822;SDS011;57119;52.516;13.508;2023-01-19T00:00:41;25.95;;;10.05;;
69822;SDS011;57119;52.516;13.508;2023-01-19T00:03:06;21.83;;;10.73;;
69822;SDS011;57119;52.516;13.508;2023-01-19T00:05:39;21.58;;;9.70;;
69822;SDS011;57119;52.516;13.508;2023-01-19T00:08:05;25.00;;;10.13;;
69822;SDS011;57119;52.516;13.508;2023-01-19T00:10:38;24.30;;;10.55;;
69822;SDS011;57119;52.516;13.508;2023-01-19T00:13:05;20.65;;;9.13;;
69822;SDS011;57119;52.516;13.508;2023-01-19T00:15:30;20.90;;;9.27;;
69822;SDS011;57119;52.516;13.508;2023-01-19T00:17:56;20.30;;;8.77;;
69822;SDS011;57119;52.516;13.508;2023-01-19T00:20:21;22.17;;;10.70;;
69822;SDS011;57119;52.516;13.508;2023-01-19T00:22:46;24.52;;;10.32;;
69822;SDS011;57119;52.516;13.508;2023-01-19T00:25:14;23.10;;;9.97;;
69822;SDS011;57119;52.516;13.508;2023-01-19T00:27:43;24.30;;;9.70;;
69822;SDS011;57119;52.516;13.508;2023-01-19T00:30:16;31.05;;;10.63;;
69822;SDS011;57119;52.516;13.508;2023-01-19T00:32:41;24.33;;;10.07;;
69822;SDS011;57119;52.516;13.508;2023-01-19T00:35:07;25.37;;;9.90;;
69822;SDS011;57119;52.516;13.508;2023-01-19T00:37:32;26.20;;;10.87;;
69822;SDS011;57119;52.516;13.508;2023-01-19T00:39:58;22.95;;;10.35;;
69822;SDS011;57119;52.516;13.508;2023-01-19T00:42:23;28.90;;;10.82;;
69822;SDS011;57119;52.516;13.508;2023-01-19T00:45:04;28.83;;;11.37;;
69822;SDS011;57119;52.516;13.508;2023-01-19T00:47:31;31.40;;;11.63;;
69822;SDS011;57119;52.516;13.508;2023-01-19T00:49:57;26.00;;;11.48;;
69822;SDS011;57119;52.516;13.508;2023-01-19T00:52:22;30.33;;;12.23;;
69822;SDS011;57119;52.516;13.508;2023-01-19T00:54:48;31.77;;;12.03;;
69822;SDS011;57119;52.516;13.508;2023-01-19T00:57:14;28.10;;;11.57;;
69822;SDS011;57119;52.516;13.508;2023-01-19T00:59:39;28.27;;;11.50;;
69822;SDS011;57119;52.516;13.508;2023-01-19T01:02:05;30.27;;;11.37;;
69822;SDS011;57119;52.516;13.508;2023-01-19T01:04:30;32.60;;;11.73;;
69822;SDS011;57119;52.516;13.508;2023-01-19T01:06:56;28.80;;;10.77;;
69822;SDS011;57119;52.516;13.508;2023-01-19T01:09:21;27.67;;;11.33;;
69822;SDS011;57119;52.516;13.508;2023-01-19T01:11:47;29.70;;;11.18;;
69822;SDS011;57119;52.516;13.508;2023-01-19T01:14:12;24.17;;;9.90;;
69822;SDS011;57119;52.516;13.508;2023-01-19T01:16:38;25.23;;;11.97;;
69822;SDS011;57119;52.516;13.508;2023-01-19T01:19:04;26.45;;;12.10;;
69822;SDS011;57119;52.516;13.508;2023-01-19T01:21:29;25.03;;;9.73;;
69822;SDS011;57119;52.516;13.508;2023-01-19T01:23:55;22.43;;;10.00;;
69822;SDS011;57119;52.516;13.508;2023-01-19T01:26:21;27.67;;;10.45;;
69822;SDS011;57119;52.516;13.508;2023-01-19T01:28:46;26.63;;;11.00;;
69822;SDS011;57119;52.516;13.508;2023-01-19T01:31:11;26.70;;;11.00;;
69822;SDS011;57119;52.516;13.508;2023-01-19T01:33:37;27.60;;;10.60;;
69822;SDS011;57119;52.516;13.508;2023-01-19T01:36:02;28.73;;;10.50;;
69822;SDS011;57119;52.516;13.508;2023-01-19T01:38:28;26.83;;;10.60;;
69822;SDS011;57119;52.516;13.508;2023-01-19T01:40:54;27.70;;;10.13;;
69822;SDS011;57119;52.516;13.508;2023-01-19T01:43:19;25.05;;;9.68;;
69822;SDS011;57119;52.516;13.508;2023-01-19T01:45:45;25.05;;;10.50;;
69822;SDS011;57119;52.516;13.508;2023-01-19T01:48:12;24.67;;;9.32;;
69822;SDS011;57119;52.516;13.508;2023-01-19T01:51:00;21.53;;;8.80;;
69822;SDS011;57119;52.516;13.508;2023-01-19T01:54:34;26.67;;;9.38;;
69822;SDS011;57119;52.516;13.508;2023-01-19T01:56:46;23.40;;;9.18;;
69822;SDS011;57119;52.516;13.508;2023-01-19T01:59:31;26.60;;;9.30;;
69822;SDS011;57119;52.516;13.508;2023-01-19T02:02:10;24.75;;;8.43;;
69822;SDS011;57119;52.516;13.508;2023-01-19T02:04:59;22.87;;;9.50;;
69822;SDS011;57119;52.516;13.508;2023-01-19T02:07:32;22.02;;;8.55;;
69822;SDS011;57119;52.516;13.508;2023-01-19T02:10:24;25.35;;;9.68;;
69822;SDS011;57119;52.516;13.508;2023-01-19T02:13:09;24.98;;;10.68;;
69822;SDS011;57119;52.516;13.508;2023-01-19T02:15:43;25.98;;;9.85;;
69822;SDS011;57119;52.516;13.508;2023-01-19T02:18:09;22.43;;;9.77;;
69822;SDS011;57119;52.516;13.508;2023-01-19T02:20:35;23.08;;;10.32;;
69822;SDS011;57119;52.516;13.508;2023-01-19T02:23:02;24.03;;;9.13;;
69822;SDS011;57119;52.516;13.508;2023-01-19T02:25:32;20.02;;;9.00;;
69822;SDS011;57119;52.516;13.508;2023-01-19T02:27:58;21.35;;;8.90;;
69822;SDS011;57119;52.516;13.508;2023-01-19T02:30:25;23.57;;;9.90;;
69822;SDS011;57119;52.516;13.508;2023-01-19T02:32:51;30.20;;;10.15;;
69822;SDS011;57119;52.516;13.508;2023-01-19T02:35:17;26.70;;;9.65;;
69822;SDS011;57119;52.516;13.508;2023-01-19T02:37:43;20.35;;;9.48;;
69822;SDS011;57119;52.516;13.508;2023-01-19T02:40:10;21.55;;;8.88;;
69822;SDS011;57119;52.516;13.508;2023-01-19T02:42:41;26.60;;;10.48;;
69822;SDS011;57119;52.516;13.508;2023-01-19T02:45:11;20.77;;;9.38;;
69822;SDS011;57119;52.516;13.508;2023-01-19T02:47:42;25.40;;;10.07;;
69822;SDS011;57119;52.516;13.508;2023-01-19T02:50:33;26.50;;;9.77;;
69822;SDS011;57119;52.516;13.508;2023-01-19T02:53:14;24.20;;;9.43;;
69822;SDS011;57119;52.516;13.508;2023-01-19T02:56:01;23.52;;;9.88;;
69822;SDS011;57119;52.516;13.508;2023-01-19T03:01:55;26.07;;;10.53;;
69822;SDS011;57119;52.516;13.508;2023-01-19T03:04:27;29.77;;;12.15;;
69822;SDS011;57119;52.516;13.508;2023-01-19T03:07:13;26.27;;;12.00;;
69822;SDS011;57119;52.516;13.508;2023-01-19T03:09:49;29.50;;;11.57;;
69822;SDS011;57119;52.516;13.508;2023-01-19T03:15:20;28.77;;;10.83;;
69822;SDS011;57119;52.516;13.508;2023-01-19T03:17:51;28.27;;;11.63;;
69822;SDS011;57119;52.516;13.508;2023-01-19T03:20:19;28.80;;;11.18;;
69822;SDS011;57119;52.516;13.508;2023-01-19T03:22:49;31.27;;;12.15;;
69822;SDS011;57119;52.516;13.508;2023-01-19T03:25:17;28.50;;;11.85;;
69822;SDS011;57119;52.516;13.508;2023-01-19T03:27:46;27.23;;;11.40;;
69822;SDS011;57119;52.516;13.508;2023-01-19T03:30:16;27.40;;;11.35;;
69822;SDS011;57119;52.516;13.508;2023-01-19T03:32:48;28.40;;;12.05;;
69822;SDS011;57119;52.516;13.508;2023-01-19T03:35:21;29.73;;;10.98;;
69822;SDS011;57119;52.516;13.508;2023-01-19T03:37:49;28.90;;;10.88;;
69822;SDS011;57119;52.516;13.508;2023-01-19T03:40:18;32.03;;;12.20;;
69822;SDS011;57119;52.516;13.508;2023-01-19T03:42:44;32.20;;;12.50;;
69822;SDS011;57119;52.516;13.508;2023-01-19T03:45:13;36.85;;;13.18;;
69822;SDS011;57119;52.516;13.508;2023-01-19T03:47:38;34.63;;;12.82;;
69822;SDS011;57119;52.516;13.508;2023-01-19T03:50:05;29.57;;;12.33;;
69822;SDS011;57119;52.516;13.508;2023-01-19T03:52:35;27.38;;;12.52;;
69822;SDS011;57119;52.516;13.508;2023-01-19T03:55:01;32.73;;;11.73;;
69822;SDS011;57119;52.516;13.508;2023-01-19T03:57:29;29.98;;;10.20;;
69822;SDS011;57119;52.516;13.508;2023-01-19T03:59:55;28.42;;;10.65;;
69822;SDS011;57119;52.516;13.508;2023-01-19T04:02:21;27.30;;;11.67;;
69822;SDS011;57119;52.516;13.508;2023-01-19T04:04:47;27.52;;;10.88;;
69822;SDS011;57119;52.516;13.508;2023-01-19T04:07:12;25.37;;;10.63;;
69822;SDS011;57119;52.516;13.508;2023-01-19T04:09:38;27.53;;;12.23;;
69822;SDS011;57119;52.516;13.508;2023-01-19T04:12:03;28.33;;;11.67;;
69822;SDS011;57119;52.516;13.508;2023-01-19T04:14:29;25.13;;;10.97;;
69822;SDS011;57119;52.516;13.508;2023-01-19T04:16:54;28.10;;;11.55;;
69822;SDS011;57119;52.516;13.508;2023-01-19T04:19:19;28.80;;;11.97;;
69822;SDS011;57119;52.516;13.508;2023-01-19T04:21:46;28.10;;;11.47;;
69822;SDS011;57119;52.516;13.508;2023-01-19T04:24:13;23.65;;;10.68;;
69822;SDS011;57119;52.516;13.508;2023-01-19T04:26:39;30.77;;;12.20;;
69822;SDS011;57119;52.516;13.508;2023-01-19T04:29:04;35.57;;;12.03;;
69822;SDS011;57119;52.516;13.508;2023-01-19T04:31:29;28.97;;;11.40;;
69822;SDS011;57119;52.516;13.508;2023-01-19T04:33:55;31.27;;;12.02;;
69822;SDS011;57119;52.516;13.508;2023-01-19T04:36:21;27.00;;;11.53;;
69822;SDS011;57119;52.516;13.508;2023-01-19T04:38:46;26.88;;;11.23;;
69822;SDS011;57119;52.516;13.508;2023-01-19T04:41:12;27.00;;;11.43;;
69822;SDS011;57119;52.516;13.508;2023-01-19T04:43:38;31.40;;;12.18;;
69822;SDS011;57119;52.516;13.508;2023-01-19T04:46:03;21.63;;;10.17;;
69822;SDS011;57119;52.516;13.508;2023-01-19T04:48:29;25.10;;;10.70;;
69822;SDS011;57119;52.516;13.508;2023-01-19T04:50:54;29.97;;;10.97;;
69822;SDS011;57119;52.516;13.508;2023-01-19T04:53:19;26.20;;;11.90;;
69822;SDS011;57119;52.516;13.508;2023-01-19T04:55:45;29.33;;;11.10;;
69822;SDS011;57119;52.516;13.508;2023-01-19T04:58:10;28.95;;;11.77;;
69822;SDS011;57119;52.516;13.508;2023-01-19T05:00:36;27.97;;;11.20;;
69822;SDS011;57119;52.516;13.508;2023-01-19T05:03:02;23.98;;;10.38;;
69822;SDS011;57119;52.516;13.508;2023-01-19T05:05:28;26.10;;;10.60;;
69822;SDS011;57119;52.516;13.508;2023-01-19T05:07:53;23.00;;;10.15;;
69822;SDS011;57119;52.516;13.508;2023-01-19T05:10:19;24.20;;;9.80;;
69822;SDS011;57119;52.516;13.508;2023-01-19T05:12:45;28.43;;;10.57;;
69822;SDS011;57119;52.516;13.508;2023-01-19T05:15:10;32.00;;;10.70;;
69822;SDS011;57119;52.516;13.508;2023-01-19T05:17:35;26.40;;;9.95;;
69822;SDS011;57119;52.516;13.508;2023-01-19T05:20:01;25.40;;;10.00;;
69822;SDS011;57119;52.516;13.508;2023-01-19T05:22:27;30.02;;;10.52;;
69822;SDS011;57119;52.516;13.508;2023-01-19T05:24:53;27.23;;;10.07;;
69822;SDS011;57119;52.516;13.508;2023-01-19T05:27:19;26.48;;;9.75;;
69822;SDS011;57119;52.516;13.508;2023-01-19T05:29:44;27.52;;;10.30;;
69822;SDS011;57119;52.516;13.508;2023-01-19T05:32:09;26.17;;;10.53;;
69822;SDS011;57119;52.516;13.508;2023-01-19T05:34:35;30.27;;;12.57;;
69822;SDS011;57119;52.516;13.508;2023-01-19T05:37:00;30.38;;;12.15;;
69822;SDS011;57119;52.516;13.508;2023-01-19T05:39:26;27.60;;;11.95;;
69822;SDS011;57119;52.516;13.508;2023-01-19T05:41:52;34.50;;;13.23;;
69822;SDS011;57119;52.516;13.508;2023-01-19T05:44:18;33.72;;;13.35;;
69822;SDS011;57119;52.516;13.508;2023-01-19T05:46:43;30.97;;;11.57;;
69822;SDS011;57119;52.516;13.508;2023-01-19T05:49:10;31.20;;;11.90;;
69822;SDS011;57119;52.516;13.508;2023-01-19T05:51:36;29.35;;;11.63;;
69822;SDS011;57119;52.516;13.508;2023-01-19T05:54:09;28.52;;;11.45;;
69822;SDS011;57119;52.516;13.508;2023-01-19T05:56:36;24.80;;;11.00;;
69822;SDS011;57119;52.516;13.508;2023-01-19T05:59:03;25.90;;;11.53;;
69822;SDS011;57119;52.516;13.508;2023-01-19T06:01:28;33.83;;;11.85;;
69822;SDS011;57119;52.516;13.508;2023-01-19T06:03:54;30.27;;;11.13;;
69822;SDS011;57119;52.516;13.508;2023-01-19T06:06:19;26.80;;;11.17;;
69822;SDS011;57119;52.516;13.508;2023-01-19T06:08:45;24.03;;;10.50;;
69822;SDS011;57119;52.516;13.508;2023-01-19T06:11:10;25.37;;;10.57;;
69822;SDS011;57119;52.516;13.508;2023-01-19T06:13:36;24.67;;;10.52;;
69822;SDS011;57119;52.516;13.508;2023-01-19T06:16:03;22.42;;;10.48;;
69822;SDS011;57119;52.516;13.508;2023-01-19T06:18:29;22.90;;;10.07;;
69822;SDS011;57119;52.516;13.508;2023-01-19T06:20:55;22.53;;;9.80;;
69822;SDS011;57119;52.516;13.508;2023-01-19T06:23:26;28.52;;;11.85;;
69822;SDS011;57119;52.516;13.508;2023-01-19T06:25:54;26.98;;;9.95;;
69822;SDS011;57119;52.516;13.508;2023-01-19T06:28:20;24.87;;;10.60;;
69822;SDS011;57119;52.516;13.508;2023-01-19T06:30:50;25.05;;;10.30;;
69822;SDS011;57119;52.516;13.508;2023-01-19T06:33:16;25.95;;;11.18;;
69822;SDS011;57119;52.516;13.508;2023-01-19T06:35:43;21.57;;;9.73;;
69822;SDS011;57119;52.516;13.508;2023-01-19T06:38:09;21.60;;;9.40;;
69822;SDS011;57119;52.516;13.508;2023-01-19T06:40:34;20.02;;;8.93;;
69822;SDS011;57119;52.516;13.508;2023-01-19T06:43:00;24.77;;;10.02;;
69822;SDS011;57119;52.516;13.508;2023-01-19T06:45:25;25.70;;;10.17;;
69822;SDS011;57119;52.516;13.508;2023-01-19T06:47:50;21.77;;;10.23;;
69822;SDS011;57119;52.516;13.508;2023-01-19T06:50:16;22.43;;;9.77;;
69822;SDS011;57119;52.516;13.508;2023-01-19T06:52:44;20.77;;;9.03;;
69822;SDS011;57119;52.516;13.508;2023-01-19T06:55:10;22.05;;;9.80;;
69822;SDS011;57119;52.516;13.508;2023-01-19T06:57:36;24.58;;;9.88;;
69822;SDS011;57119;52.516;13.508;2023-01-19T07:00:03;24.58;;;10.18;;
69822;SDS011;57119;52.516;13.508;2023-01-19T07:02:32;24.13;;;10.27;;
69822;SDS011;57119;52.516;13.508;2023-01-19T07:04:59;19.83;;;9.23;;
69822;SDS011;57119;52.516;13.508;2023-01-19T07:07:24;23.65;;;10.18;;
69822;SDS011;57119;52.516;13.508;2023-01-19T07:09:50;21.73;;;10.00;;
69822;SDS011;57119;52.516;13.508;2023-01-19T07:12:16;23.15;;;9.75;;
69822;SDS011;57119;52.516;13.508;2023-01-19T07:14:41;22.57;;;9.97;;
69822;SDS011;57119;52.516;13.508;2023-01-19T07:17:07;25.57;;;10.00;;
69822;SDS011;57119;52.516;13.508;2023-01-19T07:19:32;20.70;;;9.97;;
69822;SDS011;57119;52.516;13.508;2023-01-19T07:21:59;25.70;;;10.15;;
69822;SDS011;57119;52.516;13.508;2023-01-19T07:24:24;23.00;;;10.60;;
69822;SDS011;57119;52.516;13.508;2023-01-19T07:26:50;24.77;;;9.83;;
69822;SDS011;57119;52.516;13.508;2023-01-19T07:29:15;20.90;;;9.70;;
69822;SDS011;57119;52.516;13.508;2023-01-19T07:31:41;19.90;;;9.13;;
69822;SDS011;57119;52.516;13.508;2023-01-19T07:34:06;24.23;;;9.20;;
69822;SDS011;57119;52.516;13.508;2023-01-19T07:36:31;26.00;;;9.90;;
69822;SDS011;57119;52.516;13.508;2023-01-19T07:38:57;21.83;;;9.68;;
69822;SDS011;57119;52.516;13.508;2023-01-19T07:41:22;25.60;;;10.07;;
69822;SDS011;57119;52.516;13.508;2023-01-19T07:43:47;24.87;;;10.00;;
69822;SDS011;57119;52.516;13.508;2023-01-19T07:46:15;20.63;;;9.00;;
69822;SDS011;57119;52.516;13.508;2023-01-19T07:48:41;21.10;;;8.97;;
69822;SDS011;57119;52.516;13.508;2023-01-19T07:51:08;28.13;;;10.93;;
69822;SDS011;57119;52.516;13.508;2023-01-19T07:53:36;22.42;;;9.70;;
69822;SDS011;57119;52.516;13.508;2023-01-19T07:56:01;20.40;;;9.20;;
69822;SDS011;57119;52.516;13.508;2023-01-19T07:58:27;17.87;;;9.03;;
69822;SDS011;57119;52.516;13.508;2023-01-19T08:00:52;16.73;;;8.07;;
69822;SDS011;57119;52.516;13.508;2023-01-19T08:03:17;20.48;;;9.50;;
69822;SDS011;57119;52.516;13.508;2023-01-19T08:05:43;23.93;;;10.37;;
69822;SDS011;57119;52.516;13.508;2023-01-19T08:08:13;19.30;;;9.07;;
69822;SDS011;57119;52.516;13.508;2023-01-19T08:10:38;20.50;;;8.53;;
69822;SDS011;57119;52.516;13.508;2023-01-19T08:13:03;22.30;;;8.83;;
69822;SDS011;57119;52.516;13.508;2023-01-19T08:15:29;16.93;;;8.07;;
69822;SDS011;57119;52.516;13.508;2023-01-19T08:17:58;17.83;;;8.07;;
69822;SDS011;57119;52.516;13.508;2023-01-19T08:20:25;19.63;;;9.32;;
69822;SDS011;57119;52.516;13.508;2023-01-19T08:22:51;17.48;;;8.00;;
69822;SDS011;57119;52.516;13.508;2023-01-19T08:25:23;20.20;;;8.20;;
69822;SDS011;57119;52.516;13.508;2023-01-19T08:27:52;17.02;;;8.07;;
69822;SDS011;57119;52.516;13.508;2023-01-19T08:30:19;19.25;;;8.05;;
69822;SDS011;57119;52.516;13.508;2023-01-19T08:32:44;16.93;;;7.93;;
69822;SDS011;57119;52.516;13.508;2023-01-19T08:35:10;16.20;;;8.03;;
69822;SDS011;57119;52.516;13.508;2023-01-19T08:37:35;15.55;;;7.72;;
69822;SDS011;57119;52.516;13.508;2023-01-19T08:40:00;17.13;;;7.80;;
69822;SDS011;57119;52.516;13.508;2023-01-19T08:42:26;18.10;;;8.63;;
69822;SDS011;57119;52.516;13.508;2023-01-19T08:44:52;16.73;;;8.30;;
69822;SDS011;57119;52.516;13.508;2023-01-19T08:47:17;17.97;;;6.87;;
69822;SDS011;57119;52.516;13.508;2023-01-19T08:49:42;17.50;;;7.23;;
69822;SDS011;57119;52.516;13.508;2023-01-19T08:52:08;15.93;;;7.53;;
69822;SDS011;57119;52.516;13.508;2023-01-19T08:54:33;14.37;;;7.13;;
69822;SDS011;57119;52.516;13.508;2023-01-19T08:56:58;15.13;;;7.60;;
69822;SDS011;57119;52.516;13.508;2023-01-19T08:59:24;12.57;;;6.57;;
69822;SDS011;57119;52.516;13.508;2023-01-19T09:01:49;15.60;;;6.25;;
69822;SDS011;57119;52.516;13.508;2023-01-19T09:04:14;12.13;;;6.33;;
69822;SDS011;57119;52.516;13.508;2023-01-19T09:06:40;13.57;;;6.70;;
69822;SDS011;57119;52.516;13.508;2023-01-19T09:09:05;14.00;;;6.60;;
69822;SDS011;57119;52.516;13.508;2023-01-19T09:11:31;13.57;;;5.90;;
69822;SDS011;57119;52.516;13.508;2023-01-19T09:13:57;10.77;;;5.90;;
69822;SDS011;57119;52.516;13.508;2023-01-19T09:16:22;10.93;;;5.50;;
69822;SDS011;57119;52.516;13.508;2023-01-19T09:18:47;13.37;;;6.57;;
69822;SDS011;57119;52.516;13.508;2023-01-19T09:21:13;11.23;;;5.80;;
69822;SDS011;57119;52.516;13.508;2023-01-19T09:23:39;13.27;;;6.38;;
69822;SDS011;57119;52.516;13.508;2023-01-19T09:26:04;12.90;;;5.60;;
69822;SDS011;57119;52.516;13.508;2023-01-19T09:28:31;14.05;;;5.95;;
69822;SDS011;57119;52.516;13.508;2023-01-19T09:30:56;14.30;;;6.32;;
69822;SDS011;57119;52.516;13.508;2023-01-19T09:33:22;12.83;;;5.83;;
69822;SDS011;57119;52.516;13.508;2023-01-19T09:35:48;11.18;;;6.32;;
69822;SDS011;57119;52.516;13.508;2023-01-19T09:38:16;10.70;;;5.90;;
69822;SDS011;57119;52.516;13.508;2023-01-19T09:40:43;13.15;;;6.22;;
69822;SDS011;57119;52.516;13.508;2023-01-19T09:48:46;12.73;;;6.05;;
69822;SDS011;57119;52.516;13.508;2023-01-19T09:51:16;12.47;;;6.20;;
69822;SDS011;57119;52.516;13.508;2023-01-19T09:53:48;11.68;;;6.47;;
69822;SDS011;57119;52.516;13.508;2023-01-19T09:56:27;12.25;;;5.90;;
69822;SDS011;57119;52.516;13.508;2023-01-19T09:58:54;11.18;;;5.60;;
69822;SDS011;57119;52.516;13.508;2023-01-19T10:01:27;10.63;;;5.70;;
69822;SDS011;57119;52.516;13.508;2023-01-19T10:04:41;11.45;;;6.22;;
69822;SDS011;57119;52.516;13.508;2023-01-19T10:06:47;11.10;;;5.88;;
69822;SDS011;57119;52.516;13.508;2023-01-19T10:09:20;13.55;;;5.75;;
69822;SDS011;57119;52.516;13.508;2023-01-19T10:12:00;11.67;;;6.00;;
69822;SDS011;57119;52.516;13.508;2023-01-19T10:14:39;11.07;;;6.22;;
69822;SDS011;57119;52.516;13.508;2023-01-19T10:17:33;10.43;;;6.05;;
69822;SDS011;57119;52.516;13.508;2023-01-19T10:20:02;10.82;;;5.75;;
69822;SDS011;57119;52.516;13.508;2023-01-19T10:22:32;9.98;;;5.90;;
69822;SDS011;57119;52.516;13.508;2023-01-19T10:24:59;9.87;;;6.37;;
69822;SDS011;57119;52.516;13.508;2023-01-19T10:27:30;10.40;;;5.80;;
69822;SDS011;57119;52.516;13.508;2023-01-19T10:29:57;11.13;;;5.87;;
69822;SDS011;57119;52.516;13.508;2023-01-19T10:32:31;10.15;;;5.45;;
69822;SDS011;57119;52.516;13.508;2023-01-19T10:34:59;9.95;;;6.03;;
69822;SDS011;57119;52.516;13.508;2023-01-19T10:37:36;9.98;;;5.57;;
69822;SDS011;57119;52.516;13.508;2023-01-19T10:42:35;10.10;;;6.03;;
69822;SDS011;57119;52.516;13.508;2023-01-19T10:45:02;9.88;;;6.10;;
69822;SDS011;57119;52.516;13.508;2023-01-19T10:47:34;10.63;;;6.07;;
69822;SDS011;57119;52.516;13.508;2023-01-19T10:50:23;12.23;;;6.15;;
69822;SDS011;57119;52.516;13.508;2023-01-19T10:52:57;12.18;;;6.32;;
69822;SDS011;57119;52.516;13.508;2023-01-19T10:57:51;11.27;;;6.25;;
69822;SDS011;57119;52.516;13.508;2023-01-19T11:00:31;13.52;;;6.53;;
69822;SDS011;57119;52.516;13.508;2023-01-19T11:03:01;9.88;;;6.50;;
69822;SDS011;57119;52.516;13.508;2023-01-19T11:05:29;9.82;;;6.10;;
69822;SDS011;57119;52.516;13.508;2023-01-19T11:07:56;9.57;;;5.83;;
69822;SDS011;57119;52.516;13.508;2023-01-19T11:10:23;11.57;;;6.63;;
69822;SDS011;57119;52.516;13.508;2023-01-19T11:13:00;10.50;;;6.13;;
69822;SDS011;57119;52.516;13.508;2023-01-19T11:15:43;9.77;;;6.10;;
69822;SDS011;57119;52.516;13.508;2023-01-19T11:18:23;12.95;;;6.82;;
69822;SDS011;57119;52.516;13.508;2023-01-19T11:20:54;10.23;;;6.33;;
69822;SDS011;57119;52.516;13.508;2023-01-19T11:23:26;10.85;;;6.75;;
69822;SDS011;57119;52.516;13.508;2023-01-19T11:25:57;11.95;;;7.28;;
69822;SDS011;57119;52.516;13.508;2023-01-19T11:28:35;10.32;;;6.38;;
69822;SDS011;57119;52.516;13.508;2023-01-19T11:36:06;12.57;;;7.45;;
69822;SDS011;57119;52.516;13.508;2023-01-19T11:38:39;10.77;;;6.60;;
69822;SDS011;57119;52.516;13.508;2023-01-19T11:41:07;9.88;;;6.45;;
69822;SDS011;57119;52.516;13.508;2023-01-19T11:43:42;9.75;;;6.70;;
69822;SDS011;57119;52.516;13.508;2023-01-19T11:46:09;12.73;;;7.50;;
69822;SDS011;57119;52.516;13.508;2023-01-19T11:48:38;11.10;;;7.28;;
69822;SDS011;57119;52.516;13.508;2023-01-19T11:51:15;10.80;;;6.88;;
69822;SDS011;57119;52.516;13.508;2023-01-19T11:53:45;11.68;;;6.90;;
69822;SDS011;57119;52.516;13.508;2023-01-19T11:56:15;10.13;;;6.93;;
69822;SDS011;57119;52.516;13.508;2023-01-19T11:58:44;10.97;;;6.60;;
69822;SDS011;57119;52.516;13.508;2023-01-19T12:01:30;10.30;;;6.95;;
69822;SDS011;57119;52.516;13.508;2023-01-19T12:06:39;12.15;;;7.10;;
69822;SDS011;57119;52.516;13.508;2023-01-19T12:11:37;16.40;;;9.63;;
69822;SDS011;57119;52.516;13.508;2023-01-19T12:14:25;12.47;;;7.27;;
69822;SDS011;57119;52.516;13.508;2023-01-19T12:17:15;10.90;;;6.80;;
69822;SDS011;57119;52.516;13.508;2023-01-19T12:19:55;11.27;;;6.70;;
69822;SDS011;57119;52.516;13.508;2023-01-19T12:22:27;11.40;;;6.68;;
69822;SDS011;57119;52.516;13.508;2023-01-19T12:24:56;10.90;;;6.85;;
69822;SDS011;57119;52.516;13.508;2023-01-19T12:27:41;11.37;;;7.23;;
69822;SDS011;57119;52.516;13.508;2023-01-19T12:30:15;14.07;;;7.75;;
69822;SDS011;57119;52.516;13.508;2023-01-19T12:32:44;12.27;;;6.85;;
69822;SDS011;57119;52.516;13.508;2023-01-19T12:38:32;13.98;;;8.23;;
69822;SDS011;57119;52.516;13.508;2023-01-19T12:46:35;11.80;;;7.05;;
69822;SDS011;57119;52.516;13.508;2023-01-19T12:51:29;13.32;;;7.55;;
69822;SDS011;57119;52.516;13.508;2023-01-19T12:53:56;13.47;;;8.20;;
69822;SDS011;57119;52.516;13.508;2023-01-19T12:56:32;12.48;;;8.13;;
69822;SDS011;57119;52.516;13.508;2023-01-19T12:59:00;12.18;;;7.18;;
69822;SDS011;57119;52.516;13.508;2023-01-19T13:01:27;12.75;;;7.70;;
69822;SDS011;57119;52.516;13.508;2023-01-19T13:06:49;11.00;;;7.38;;
69822;SDS011;57119;52.516;13.508;2023-01-19T13:09:32;12.82;;;7.82;;
69822;SDS011;57119;52.516;13.508;2023-01-19T13:17:57;13.90;;;7.47;;
69822;SDS011;57119;52.516;13.508;2023-01-19T13:20:25;13.15;;;7.55;;
69822;SDS011;57119;52.516;13.508;2023-01-19T13:23:15;12.27;;;7.07;;
69822;SDS011;57119;52.516;13.508;2023-01-19T13:26:11;10.98;;;6.68;;
69822;SDS011;57119;52.516;13.508;2023-01-19T13:28:44;12.30;;;7.78;;
69822;SDS011;57119;52.516;13.508;2023-01-19T13:31:13;12.63;;;7.53;;
69822;SDS011;57119;52.516;13.508;2023-01-19T13:33:47;12.85;;;7.43;;
69822;SDS011;57119;52.516;13.508;2023-01-19T13:36:17;10.73;;;6.78;;
69822;SDS011;57119;52.516;13.508;2023-01-19T13:38:47;13.73;;;7.50;;
69822;SDS011;57119;52.516;13.508;2023-01-19T13:41:15;13.25;;;7.60;;
69822;SDS011;57119;52.516;13.508;2023-01-19T13:43:44;12.60;;;6.70;;
69822;SDS011;57119;52.516;13.508;2023-01-19T13:46:11;14.00;;;7.22;;
69822;SDS011;57119;52.516;13.508;2023-01-19T13:48:38;14.32;;;6.90;;
69822;SDS011;57119;52.516;13.508;2023-01-19T13:51:18;14.40;;;7.15;;
69822;SDS011;57119;52.516;13.508;2023-01-19T13:53:57;15.43;;;7.32;;
69822;SDS011;57119;52.516;13.508;2023-01-19T13:56:26;15.93;;;7.60;;
69822;SDS011;57119;52.516;13.508;2023-01-19T13:58:56;12.68;;;7.10;;
69822;SDS011;57119;52.516;13.508;2023-01-19T14:01:22;14.93;;;6.97;;
69822;SDS011;57119;52.516;13.508;2023-01-19T14:03:47;16.17;;;7.53;;
69822;SDS011;57119;52.516;13.508;2023-01-19T14:06:35;14.52;;;7.22;;
69822;SDS011;57119;52.516;13.508;2023-01-19T14:09:07;17.05;;;8.35;;
69822;SDS011;57119;52.516;13.508;2023-01-19T14:11:40;17.75;;;7.00;;
69822;SDS011;57119;52.516;13.508;2023-01-19T14:14:20;14.87;;;7.13;;
69822;SDS011;57119;52.516;13.508;2023-01-19T14:16:49;14.10;;;7.20;;
69822;SDS011;57119;52.516;13.508;2023-01-19T14:19:15;17.05;;;7.55;;
69822;SDS011;57119;52.516;13.508;2023-01-19T14:21:40;18.57;;;7.57;;
69822;SDS011;57119;52.516;13.508;2023-01-19T14:32:05;15.02;;;6.70;;
69822;SDS011;57119;52.516;13.508;2023-01-19T14:35:22;14.30;;;5.80;;
69822;SDS011;57119;52.516;13.508;2023-01-19T14:37:29;15.38;;;6.82;;
69822;SDS011;57119;52.516;13.508;2023-01-19T14:40:12;15.60;;;7.00;;
69822;SDS011;57119;52.516;13.508;2023-01-19T14:42:46;15.63;;;7.22;;
69822;SDS011;57119;52.516;13.508;2023-01-19T14:45:21;16.02;;;7.38;;
69822;SDS011;57119;52.516;13.508;2023-01-19T14:47:53;15.00;;;7.10;;
69822;SDS011;57119;52.516;13.508;2023-01-19T14:50:30;15.00;;;6.78;;
69822;SDS011;57119;52.516;13.508;2023-01-19T14:53:02;17.05;;;7.15;;
69822;SDS011;57119;52.516;13.508;2023-01-19T14:55:46;15.80;;;7.47;;
69822;SDS011;57119;52.516;13.508;2023-01-19T14:58:15;16.13;;;6.90;;
69822;SDS011;57119;52.516;13.508;2023-01-19T15:00:42;17.33;;;7.47;;
69822;SDS011;57119;52.516;13.508;2023-01-19T15:03:09;16.42;;;7.72;;
69822;SDS011;57119;52.516;13.508;2023-01-19T15:05:38;18.30;;;7.57;;
69822;SDS011;57119;52.516;13.508;2023-01-19T15:08:05;16.27;;;7.88;;
69822;SDS011;57119;52.516;13.508;2023-01-19T15:10:32;17.58;;;7.57;;
69822;SDS011;57119;52.516;13.508;2023-01-19T15:12:59;17.85;;;7.80;;
69822;SDS011;57119;52.516;13.508;2023-01-19T15:17:54;16.25;;;7.13;;
69822;SDS011;57119;52.516;13.508;2023-01-19T15:20:20;19.50;;;7.85;;
69822;SDS011;57119;52.516;13.508;2023-01-19T15:22:47;18.60;;;8.23;;
69822;SDS011;57119;52.516;13.508;2023-01-19T15:25:17;18.05;;;7.65;;